sensor_id;sensor_type;location;lat;lon;timestamp;temperature;humidity
44271;DHT22;29963;44.594;11.368;2023-04-16T00:01:27;12.60;99.90
44271;DHT22;29963;44.594;11.368;2023-04-16T00:03:53;12.60;99.90
44271;DHT22;29963;44.594;11.368;2023-04-16T00:06:19;12.70;99.90
44271;DHT22;29963;44.594;11.368;2023-04-16T00:08:45;12.70;99.90
44271;DHT22;29963;44.594;11.368;2023-04-16T00:11:11;12.70;99.90
44271;DHT22;29963;44.594;11.368;2023-04-16T00:13:36;12.70;99.90
44271;DHT22;29963;44.594;11.368;2023-04-16T00:16:02;12.70;99.90
44271;DHT22;29963;44.594;11.368;2023-04-16T00:18:28;12.60;99.90
44271;DHT22;29963;44.594;11.368;2023-04-16T00:20:53;12.60;99.90
44271;DHT22;29963;44.594;11.368;2023-04-16T00:23:19;12.50;99.90
44271;DHT22;29963;44.594;11.368;2023-04-16T00:25:45;12.50;99.90
44271;DHT22;29963;44.594;11.368;2023-04-16T00:28:11;12.40;99.90
44271;DHT22;29963;44.594;11.368;2023-04-16T00:30:36;12.30;99.90
44271;DHT22;29963;44.594;11.368;2023-04-16T00:33:02;12.40;99.90
44271;DHT22;29963;44.594;11.368;2023-04-16T00:35:29;12.40;99.90
44271;DHT22;29963;44.594;11.368;2023-04-16T00:37:54;12.30;99.90
44271;DHT22;29963;44.594;11.368;2023-04-16T00:40:20;12.20;99.90
44271;DHT22;29963;44.594;11.368;2023-04-16T00:42:45;12.10;99.90
44271;DHT22;29963;44.594;11.368;2023-04-16T00:45:11;11.90;99.90
44271;DHT22;29963;44.594;11.368;2023-04-16T00:47:37;11.70;99.90
44271;DHT22;29963;44.594;11.368;2023-04-16T00:50:03;11.60;99.90
44271;DHT22;29963;44.594;11.368;2023-04-16T00:52:31;11.70;99.90
44271;DHT22;29963;44.594;11.368;2023-04-16T00:54:57;11.60;99.90
44271;DHT22;29963;44.594;11.368;2023-04-16T00:57:23;11.60;99.90
44271;DHT22;29963;44.594;11.368;2023-04-16T00:59:49;11.60;99.90
44271;DHT22;29963;44.594;11.368;2023-04-16T01:02:15;11.70;99.90
44271;DHT22;29963;44.594;11.368;2023-04-16T01:04:41;11.70;99.90
44271;DHT22;29963;44.594;11.368;2023-04-16T01:07:07;11.80;99.90
44271;DHT22;29963;44.594;11.368;2023-04-16T01:09:32;11.80;99.90
44271;DHT22;29963;44.594;11.368;2023-04-16T01:11:58;11.70;99.90
44271;DHT22;29963;44.594;11.368;2023-04-16T01:14:23;11.70;99.90
44271;DHT22;29963;44.594;11.368;2023-04-16T01:16:49;11.70;99.90
44271;DHT22;29963;44.594;11.368;2023-04-16T01:19:15;11.70;99.90
44271;DHT22;29963;44.594;11.368;2023-04-16T01:21:40;11.80;99.90
44271;DHT22;29963;44.594;11.368;2023-04-16T01:24:06;11.80;99.90
44271;DHT22;29963;44.594;11.368;2023-04-16T01:26:32;11.80;99.90
44271;DHT22;29963;44.594;11.368;2023-04-16T01:28:58;11.70;99.90
44271;DHT22;29963;44.594;11.368;2023-04-16T01:31:24;11.60;99.90
44271;DHT22;29963;44.594;11.368;2023-04-16T01:33:50;11.50;99.90
44271;DHT22;29963;44.594;11.368;2023-04-16T01:36:15;11.50;99.90
44271;DHT22;29963;44.594;11.368;2023-04-16T01:38:41;11.50;99.90
44271;DHT22;29963;44.594;11.368;2023-04-16T01:41:07;11.40;99.90
44271;DHT22;29963;44.594;11.368;2023-04-16T01:43:32;11.40;99.90
44271;DHT22;29963;44.594;11.368;2023-04-16T01:46:17;11.40;99.90
44271;DHT22;29963;44.594;11.368;2023-04-16T01:48:43;11.50;99.90
44271;DHT22;29963;44.594;11.368;2023-04-16T01:51:09;11.60;99.90
44271;DHT22;29963;44.594;11.368;2023-04-16T01:53:35;11.40;99.90
44271;DHT22;29963;44.594;11.368;2023-04-16T01:56:00;11.30;99.90
44271;DHT22;29963;44.594;11.368;2023-04-16T01:58:30;11.20;99.90
44271;DHT22;29963;44.594;11.368;2023-04-16T02:00:57;11.20;99.90
44271;DHT22;29963;44.594;11.368;2023-04-16T02:03:23;11.20;99.90
44271;DHT22;29963;44.594;11.368;2023-04-16T02:05:49;11.20;99.90
44271;DHT22;29963;44.594;11.368;2023-04-16T02:08:16;11.30;99.90
44271;DHT22;29963;44.594;11.368;2023-04-16T02:10:45;11.30;99.90
44271;DHT22;29963;44.594;11.368;2023-04-16T02:13:10;11.30;99.90
44271;DHT22;29963;44.594;11.368;2023-04-16T02:15:36;11.40;99.90
44271;DHT22;29963;44.594;11.368;2023-04-16T02:18:02;11.30;99.90
44271;DHT22;29963;44.594;11.368;2023-04-16T02:20:27;11.20;99.90
44271;DHT22;29963;44.594;11.368;2023-04-16T02:22:53;11.20;99.90
44271;DHT22;29963;44.594;11.368;2023-04-16T02:25:18;11.10;99.90
44271;DHT22;29963;44.594;11.368;2023-04-16T02:27:44;11.10;99.90
44271;DHT22;29963;44.594;11.368;2023-04-16T02:30:10;11.10;99.90
44271;DHT22;29963;44.594;11.368;2023-04-16T02:32:36;11.10;99.90
44271;DHT22;29963;44.594;11.368;2023-04-16T02:35:01;11.20;99.90
44271;DHT22;29963;44.594;11.368;2023-04-16T02:37:28;11.10;99.90
44271;DHT22;29963;44.594;11.368;2023-04-16T02:39:54;11.00;99.90
44271;DHT22;29963;44.594;11.368;2023-04-16T02:42:19;11.00;99.90
44271;DHT22;29963;44.594;11.368;2023-04-16T02:44:45;10.90;99.90
44271;DHT22;29963;44.594;11.368;2023-04-16T02:47:11;10.80;99.90
44271;DHT22;29963;44.594;11.368;2023-04-16T02:49:36;10.70;99.90
44271;DHT22;29963;44.594;11.368;2023-04-16T02:52:02;10.60;99.90
44271;DHT22;29963;44.594;11.368;2023-04-16T02:54:27;10.70;99.90
44271;DHT22;29963;44.594;11.368;2023-04-16T02:56:53;10.70;99.90
44271;DHT22;29963;44.594;11.368;2023-04-16T02:59:18;10.80;99.90
44271;DHT22;29963;44.594;11.368;2023-04-16T03:01:44;10.80;99.90
44271;DHT22;29963;44.594;11.368;2023-04-16T03:04:10;10.80;99.90
44271;DHT22;29963;44.594;11.368;2023-04-16T03:06:35;10.80;99.90
44271;DHT22;29963;44.594;11.368;2023-04-16T03:09:01;10.80;99.90
44271;DHT22;29963;44.594;11.368;2023-04-16T03:11:27;10.70;99.90
44271;DHT22;29963;44.594;11.368;2023-04-16T03:13:52;10.60;99.90
44271;DHT22;29963;44.594;11.368;2023-04-16T03:16:18;10.50;99.90
44271;DHT22;29963;44.594;11.368;2023-04-16T03:18:43;10.50;99.90
44271;DHT22;29963;44.594;11.368;2023-04-16T03:21:09;10.50;99.90
44271;DHT22;29963;44.594;11.368;2023-04-16T03:23:34;11.10;99.90
44271;DHT22;29963;44.594;11.368;2023-04-16T03:26:00;10.60;99.90
44271;DHT22;29963;44.594;11.368;2023-04-16T03:28:26;10.70;99.90
44271;DHT22;29963;44.594;11.368;2023-04-16T03:30:52;10.70;99.90
44271;DHT22;29963;44.594;11.368;2023-04-16T03:33:19;10.70;99.90
44271;DHT22;29963;44.594;11.368;2023-04-16T03:35:45;10.70;99.90
44271;DHT22;29963;44.594;11.368;2023-04-16T03:38:10;10.70;99.90
44271;DHT22;29963;44.594;11.368;2023-04-16T03:40:37;10.60;99.90
44271;DHT22;29963;44.594;11.368;2023-04-16T03:43:03;10.60;99.90
44271;DHT22;29963;44.594;11.368;2023-04-16T03:45:28;10.60;99.90
44271;DHT22;29963;44.594;11.368;2023-04-16T03:47:54;10.50;99.90
44271;DHT22;29963;44.594;11.368;2023-04-16T03:50:20;10.50;99.90
44271;DHT22;29963;44.594;11.368;2023-04-16T03:52:45;10.40;99.90
44271;DHT22;29963;44.594;11.368;2023-04-16T03:55:13;10.30;99.90
44271;DHT22;29963;44.594;11.368;2023-04-16T03:57:39;10.30;99.90
44271;DHT22;29963;44.594;11.368;2023-04-16T04:00:06;10.30;99.90
44271;DHT22;29963;44.594;11.368;2023-04-16T04:02:32;10.20;99.90
44271;DHT22;29963;44.594;11.368;2023-04-16T04:04:57;10.20;99.90
44271;DHT22;29963;44.594;11.368;2023-04-16T04:07:23;10.20;99.90
44271;DHT22;29963;44.594;11.368;2023-04-16T04:09:48;10.10;99.90
44271;DHT22;29963;44.594;11.368;2023-04-16T04:12:14;10.10;99.90
44271;DHT22;29963;44.594;11.368;2023-04-16T04:14:40;10.10;99.90
44271;DHT22;29963;44.594;11.368;2023-04-16T04:17:07;10.00;99.90
44271;DHT22;29963;44.594;11.368;2023-04-16T04:19:32;10.00;99.90
44271;DHT22;29963;44.594;11.368;2023-04-16T04:21:58;9.90;99.90
44271;DHT22;29963;44.594;11.368;2023-04-16T04:24:24;9.90;99.90
44271;DHT22;29963;44.594;11.368;2023-04-16T04:26:49;9.80;99.90
44271;DHT22;29963;44.594;11.368;2023-04-16T04:29:15;9.80;99.90
44271;DHT22;29963;44.594;11.368;2023-04-16T04:31:40;9.80;99.90
44271;DHT22;29963;44.594;11.368;2023-04-16T04:34:06;9.80;99.90
44271;DHT22;29963;44.594;11.368;2023-04-16T04:36:32;9.70;99.90
44271;DHT22;29963;44.594;11.368;2023-04-16T04:38:58;9.70;99.90
44271;DHT22;29963;44.594;11.368;2023-04-16T04:41:23;9.60;99.90
44271;DHT22;29963;44.594;11.368;2023-04-16T04:43:51;9.60;99.90
44271;DHT22;29963;44.594;11.368;2023-04-16T04:46:16;9.60;99.90
44271;DHT22;29963;44.594;11.368;2023-04-16T04:48:42;9.70;99.90
44271;DHT22;29963;44.594;11.368;2023-04-16T04:51:07;9.80;99.90
44271;DHT22;29963;44.594;11.368;2023-04-16T04:53:33;9.90;99.90
44271;DHT22;29963;44.594;11.368;2023-04-16T04:55:59;10.00;99.90
44271;DHT22;29963;44.594;11.368;2023-04-16T04:58:24;10.00;99.90
44271;DHT22;29963;44.594;11.368;2023-04-16T05:00:50;10.00;99.90
44271;DHT22;29963;44.594;11.368;2023-04-16T05:03:19;10.00;99.90
44271;DHT22;29963;44.594;11.368;2023-04-16T05:05:46;10.00;99.90
44271;DHT22;29963;44.594;11.368;2023-04-16T05:08:11;10.00;99.90
44271;DHT22;29963;44.594;11.368;2023-04-16T05:10:37;10.00;99.90
44271;DHT22;29963;44.594;11.368;2023-04-16T05:13:03;10.00;99.90
44271;DHT22;29963;44.594;11.368;2023-04-16T05:15:28;10.00;99.90
44271;DHT22;29963;44.594;11.368;2023-04-16T05:17:54;9.90;99.90
44271;DHT22;29963;44.594;11.368;2023-04-16T05:20:21;9.90;99.90
44271;DHT22;29963;44.594;11.368;2023-04-16T05:22:51;10.00;99.90
44271;DHT22;29963;44.594;11.368;2023-04-16T05:25:17;9.90;99.90
44271;DHT22;29963;44.594;11.368;2023-04-16T05:27:43;10.00;99.90
44271;DHT22;29963;44.594;11.368;2023-04-16T05:30:09;10.10;99.90
44271;DHT22;29963;44.594;11.368;2023-04-16T05:32:35;10.20;99.90
44271;DHT22;29963;44.594;11.368;2023-04-16T05:35:00;10.20;99.90
44271;DHT22;29963;44.594;11.368;2023-04-16T05:37:26;10.30;99.90
44271;DHT22;29963;44.594;11.368;2023-04-16T05:39:52;10.40;99.90
44271;DHT22;29963;44.594;11.368;2023-04-16T05:42:19;10.40;99.90
44271;DHT22;29963;44.594;11.368;2023-04-16T05:44:44;10.40;99.90
44271;DHT22;29963;44.594;11.368;2023-04-16T05:47:10;10.50;99.90
44271;DHT22;29963;44.594;11.368;2023-04-16T05:49:36;10.50;99.90
44271;DHT22;29963;44.594;11.368;2023-04-16T05:52:02;10.60;99.90
44271;DHT22;29963;44.594;11.368;2023-04-16T05:54:28;10.70;99.90
44271;DHT22;29963;44.594;11.368;2023-04-16T05:56:54;10.80;99.90
44271;DHT22;29963;44.594;11.368;2023-04-16T05:59:19;10.90;99.90
44271;DHT22;29963;44.594;11.368;2023-04-16T06:01:45;10.90;99.90
44271;DHT22;29963;44.594;11.368;2023-04-16T06:04:10;10.90;99.90
44271;DHT22;29963;44.594;11.368;2023-04-16T06:06:36;11.00;99.90
44271;DHT22;29963;44.594;11.368;2023-04-16T06:09:02;11.00;99.90
44271;DHT22;29963;44.594;11.368;2023-04-16T06:11:31;11.00;99.90
44271;DHT22;29963;44.594;11.368;2023-04-16T06:13:57;11.20;99.90
44271;DHT22;29963;44.594;11.368;2023-04-16T06:16:22;11.30;99.90
44271;DHT22;29963;44.594;11.368;2023-04-16T06:18:48;11.40;99.90
44271;DHT22;29963;44.594;11.368;2023-04-16T06:21:13;11.40;99.90
44271;DHT22;29963;44.594;11.368;2023-04-16T06:23:40;11.50;99.90
44271;DHT22;29963;44.594;11.368;2023-04-16T06:26:05;11.50;99.90
44271;DHT22;29963;44.594;11.368;2023-04-16T06:28:31;11.50;99.90
44271;DHT22;29963;44.594;11.368;2023-04-16T06:30:56;11.50;99.90
44271;DHT22;29963;44.594;11.368;2023-04-16T06:33:22;11.50;99.90
44271;DHT22;29963;44.594;11.368;2023-04-16T06:35:48;11.60;99.90
44271;DHT22;29963;44.594;11.368;2023-04-16T06:38:14;11.70;99.90
44271;DHT22;29963;44.594;11.368;2023-04-16T06:40:39;11.70;99.90
44271;DHT22;29963;44.594;11.368;2023-04-16T06:43:05;11.80;99.90
44271;DHT22;29963;44.594;11.368;2023-04-16T06:45:30;11.80;99.90
44271;DHT22;29963;44.594;11.368;2023-04-16T06:47:56;11.90;99.90
44271;DHT22;29963;44.594;11.368;2023-04-16T06:50:24;11.90;99.90
44271;DHT22;29963;44.594;11.368;2023-04-16T06:52:51;11.80;99.90
44271;DHT22;29963;44.594;11.368;2023-04-16T06:55:17;11.80;99.90
44271;DHT22;29963;44.594;11.368;2023-04-16T06:57:42;11.80;99.90
44271;DHT22;29963;44.594;11.368;2023-04-16T07:00:08;11.90;99.90
44271;DHT22;29963;44.594;11.368;2023-04-16T07:02:34;12.00;99.90
44271;DHT22;29963;44.594;11.368;2023-04-16T07:05:00;12.10;99.90
44271;DHT22;29963;44.594;11.368;2023-04-16T07:07:25;12.10;99.90
44271;DHT22;29963;44.594;11.368;2023-04-16T07:09:51;12.30;99.90
44271;DHT22;29963;44.594;11.368;2023-04-16T07:12:17;12.40;99.90
44271;DHT22;29963;44.594;11.368;2023-04-16T07:14:42;12.60;99.90
44271;DHT22;29963;44.594;11.368;2023-04-16T07:17:08;12.70;99.90
44271;DHT22;29963;44.594;11.368;2023-04-16T07:19:34;12.80;99.90
44271;DHT22;29963;44.594;11.368;2023-04-16T07:22:00;12.80;99.90
44271;DHT22;29963;44.594;11.368;2023-04-16T07:24:26;12.90;99.90
44271;DHT22;29963;44.594;11.368;2023-04-16T07:26:51;12.90;99.90
44271;DHT22;29963;44.594;11.368;2023-04-16T07:29:17;12.90;99.90
44271;DHT22;29963;44.594;11.368;2023-04-16T07:31:43;13.00;99.90
44271;DHT22;29963;44.594;11.368;2023-04-16T07:34:09;13.00;99.90
44271;DHT22;29963;44.594;11.368;2023-04-16T07:36:35;13.00;99.90
44271;DHT22;29963;44.594;11.368;2023-04-16T07:39:01;13.10;99.90
44271;DHT22;29963;44.594;11.368;2023-04-16T07:41:27;13.00;99.90
44271;DHT22;29963;44.594;11.368;2023-04-16T07:43:54;13.00;99.90
44271;DHT22;29963;44.594;11.368;2023-04-16T07:46:19;13.00;99.90
44271;DHT22;29963;44.594;11.368;2023-04-16T07:48:45;13.10;99.90
44271;DHT22;29963;44.594;11.368;2023-04-16T07:51:11;13.10;99.90
44271;DHT22;29963;44.594;11.368;2023-04-16T07:53:36;13.20;99.90
44271;DHT22;29963;44.594;11.368;2023-04-16T07:56:02;13.30;99.90
44271;DHT22;29963;44.594;11.368;2023-04-16T07:58:27;13.40;99.90
44271;DHT22;29963;44.594;11.368;2023-04-16T08:00:53;13.50;99.90
44271;DHT22;29963;44.594;11.368;2023-04-16T08:03:19;13.60;99.90
44271;DHT22;29963;44.594;11.368;2023-04-16T08:05:44;13.70;99.90
44271;DHT22;29963;44.594;11.368;2023-04-16T08:08:10;13.80;99.90
44271;DHT22;29963;44.594;11.368;2023-04-16T08:10:35;13.80;99.90
44271;DHT22;29963;44.594;11.368;2023-04-16T08:13:01;13.80;99.90
44271;DHT22;29963;44.594;11.368;2023-04-16T08:15:27;13.90;99.90
44271;DHT22;29963;44.594;11.368;2023-04-16T08:17:52;14.00;99.90
44271;DHT22;29963;44.594;11.368;2023-04-16T08:20:18;14.10;99.90
44271;DHT22;29963;44.594;11.368;2023-04-16T08:22:44;14.10;99.90
44271;DHT22;29963;44.594;11.368;2023-04-16T08:25:10;14.20;99.90
44271;DHT22;29963;44.594;11.368;2023-04-16T08:27:36;14.30;99.90
44271;DHT22;29963;44.594;11.368;2023-04-16T08:30:03;14.40;99.90
44271;DHT22;29963;44.594;11.368;2023-04-16T08:32:28;14.40;99.90
44271;DHT22;29963;44.594;11.368;2023-04-16T08:34:54;14.50;99.90
44271;DHT22;29963;44.594;11.368;2023-04-16T08:37:20;14.60;99.90
44271;DHT22;29963;44.594;11.368;2023-04-16T08:39:45;14.80;99.90
44271;DHT22;29963;44.594;11.368;2023-04-16T08:42:19;14.80;99.90
44271;DHT22;29963;44.594;11.368;2023-04-16T08:44:47;14.80;99.90
44271;DHT22;29963;44.594;11.368;2023-04-16T08:47:15;14.80;99.90
44271;DHT22;29963;44.594;11.368;2023-04-16T08:49:44;14.80;99.90
44271;DHT22;29963;44.594;11.368;2023-04-16T08:52:15;14.90;99.90
44271;DHT22;29963;44.594;11.368;2023-04-16T08:54:55;14.90;99.90
44271;DHT22;29963;44.594;11.368;2023-04-16T08:57:23;14.90;99.90
44271;DHT22;29963;44.594;11.368;2023-04-16T08:59:53;15.00;99.90
44271;DHT22;29963;44.594;11.368;2023-04-16T09:02:19;15.00;99.90
44271;DHT22;29963;44.594;11.368;2023-04-16T09:04:45;15.10;99.90
44271;DHT22;29963;44.594;11.368;2023-04-16T09:07:13;15.10;99.90
44271;DHT22;29963;44.594;11.368;2023-04-16T09:09:39;15.30;99.90
44271;DHT22;29963;44.594;11.368;2023-04-16T09:12:07;15.40;99.90
44271;DHT22;29963;44.594;11.368;2023-04-16T09:14:33;15.50;99.90
44271;DHT22;29963;44.594;11.368;2023-04-16T09:16:59;15.50;99.90
44271;DHT22;29963;44.594;11.368;2023-04-16T09:19:26;15.60;99.90
44271;DHT22;29963;44.594;11.368;2023-04-16T09:21:52;15.80;99.90
44271;DHT22;29963;44.594;11.368;2023-04-16T09:24:18;15.90;99.90
44271;DHT22;29963;44.594;11.368;2023-04-16T09:26:44;16.00;99.90
44271;DHT22;29963;44.594;11.368;2023-04-16T09:29:10;16.10;99.90
44271;DHT22;29963;44.594;11.368;2023-04-16T09:31:36;16.20;99.90
44271;DHT22;29963;44.594;11.368;2023-04-16T09:34:06;16.30;99.90
44271;DHT22;29963;44.594;11.368;2023-04-16T09:36:33;16.30;99.90
44271;DHT22;29963;44.594;11.368;2023-04-16T09:38:59;16.30;99.90
44271;DHT22;29963;44.594;11.368;2023-04-16T09:41:29;16.40;99.90
44271;DHT22;29963;44.594;11.368;2023-04-16T09:44:00;16.50;99.90
44271;DHT22;29963;44.594;11.368;2023-04-16T09:46:39;16.60;99.90
44271;DHT22;29963;44.594;11.368;2023-04-16T09:49:23;16.60;99.90
44271;DHT22;29963;44.594;11.368;2023-04-16T09:51:53;16.80;99.90
44271;DHT22;29963;44.594;11.368;2023-04-16T09:54:20;16.80;99.90
44271;DHT22;29963;44.594;11.368;2023-04-16T09:56:45;16.90;99.90
44271;DHT22;29963;44.594;11.368;2023-04-16T09:59:18;17.00;99.40
44271;DHT22;29963;44.594;11.368;2023-04-16T10:01:43;17.00;98.50
44271;DHT22;29963;44.594;11.368;2023-04-16T10:04:14;17.10;98.50
44271;DHT22;29963;44.594;11.368;2023-04-16T10:06:40;17.10;99.10
44271;DHT22;29963;44.594;11.368;2023-04-16T10:09:07;17.20;98.80
44271;DHT22;29963;44.594;11.368;2023-04-16T10:11:33;17.20;98.90
44271;DHT22;29963;44.594;11.368;2023-04-16T10:13:58;17.30;99.10
44271;DHT22;29963;44.594;11.368;2023-04-16T10:16:24;17.40;98.90
44271;DHT22;29963;44.594;11.368;2023-04-16T10:18:50;17.50;98.70
44271;DHT22;29963;44.594;11.368;2023-04-16T10:21:17;17.50;97.80
44271;DHT22;29963;44.594;11.368;2023-04-16T10:23:43;17.60;97.50
44271;DHT22;29963;44.594;11.368;2023-04-16T10:26:09;17.70;97.20
44271;DHT22;29963;44.594;11.368;2023-04-16T10:28:36;17.70;97.20
44271;DHT22;29963;44.594;11.368;2023-04-16T10:31:03;17.80;99.90
44271;DHT22;29963;44.594;11.368;2023-04-16T10:33:32;17.90;99.50
44271;DHT22;29963;44.594;11.368;2023-04-16T10:36:22;17.90;99.90
44271;DHT22;29963;44.594;11.368;2023-04-16T10:38:52;17.90;99.40
44271;DHT22;29963;44.594;11.368;2023-04-16T10:41:20;18.00;99.90
44271;DHT22;29963;44.594;11.368;2023-04-16T10:43:48;17.90;98.50
44271;DHT22;29963;44.594;11.368;2023-04-16T10:46:25;17.80;97.80
44271;DHT22;29963;44.594;11.368;2023-04-16T10:48:55;17.80;97.80
44271;DHT22;29963;44.594;11.368;2023-04-16T10:51:29;17.80;97.50
44271;DHT22;29963;44.594;11.368;2023-04-16T10:56:35;17.70;97.50
44271;DHT22;29963;44.594;11.368;2023-04-16T10:59:04;17.90;97.90
44271;DHT22;29963;44.594;11.368;2023-04-16T11:01:41;17.90;96.40
44271;DHT22;29963;44.594;11.368;2023-04-16T11:09:54;18.00;95.60
44271;DHT22;29963;44.594;11.368;2023-04-16T11:12:40;18.00;95.30
44271;DHT22;29963;44.594;11.368;2023-04-16T11:15:07;18.10;95.30
44271;DHT22;29963;44.594;11.368;2023-04-16T11:17:44;18.10;94.90
44271;DHT22;29963;44.594;11.368;2023-04-16T11:22:42;18.20;94.30
44271;DHT22;29963;44.594;11.368;2023-04-16T11:25:10;18.30;94.00
44271;DHT22;29963;44.594;11.368;2023-04-16T11:27:36;18.30;94.10
44271;DHT22;29963;44.594;11.368;2023-04-16T11:30:06;18.30;93.80
44271;DHT22;29963;44.594;11.368;2023-04-16T11:32:36;18.30;94.30
44271;DHT22;29963;44.594;11.368;2023-04-16T11:35:06;18.50;94.20
44271;DHT22;29963;44.594;11.368;2023-04-16T11:37:37;18.50;93.10
44271;DHT22;29963;44.594;11.368;2023-04-16T11:40:04;18.50;92.10
44271;DHT22;29963;44.594;11.368;2023-04-16T11:42:34;18.60;91.90
44271;DHT22;29963;44.594;11.368;2023-04-16T11:45:06;18.70;92.40
44271;DHT22;29963;44.594;11.368;2023-04-16T11:47:41;18.70;92.40
44271;DHT22;29963;44.594;11.368;2023-04-16T11:50:26;18.80;91.60
44271;DHT22;29963;44.594;11.368;2023-04-16T11:52:55;18.80;91.40
44271;DHT22;29963;44.594;11.368;2023-04-16T11:55:21;18.80;91.30
44271;DHT22;29963;44.594;11.368;2023-04-16T11:57:47;18.70;91.00
44271;DHT22;29963;44.594;11.368;2023-04-16T12:00:13;18.70;91.20
44271;DHT22;29963;44.594;11.368;2023-04-16T12:07:58;18.60;90.90
44271;DHT22;29963;44.594;11.368;2023-04-16T12:10:24;18.70;90.90
44271;DHT22;29963;44.594;11.368;2023-04-16T12:12:50;18.70;91.20
44271;DHT22;29963;44.594;11.368;2023-04-16T12:15:16;18.70;90.10
44271;DHT22;29963;44.594;11.368;2023-04-16T12:17:42;18.70;88.90
44271;DHT22;29963;44.594;11.368;2023-04-16T12:20:12;18.80;88.80
44271;DHT22;29963;44.594;11.368;2023-04-16T12:22:40;18.80;88.90
44271;DHT22;29963;44.594;11.368;2023-04-16T12:25:13;18.90;87.20
44271;DHT22;29963;44.594;11.368;2023-04-16T12:27:49;18.90;84.80
44271;DHT22;29963;44.594;11.368;2023-04-16T12:30:17;18.90;86.70
44271;DHT22;29963;44.594;11.368;2023-04-16T12:32:44;18.80;87.30
44271;DHT22;29963;44.594;11.368;2023-04-16T12:35:11;18.90;87.40
44271;DHT22;29963;44.594;11.368;2023-04-16T12:37:37;18.90;86.60
44271;DHT22;29963;44.594;11.368;2023-04-16T12:40:03;18.90;87.20
44271;DHT22;29963;44.594;11.368;2023-04-16T12:42:30;19.00;88.30
44271;DHT22;29963;44.594;11.368;2023-04-16T12:45:01;19.10;88.80
44271;DHT22;29963;44.594;11.368;2023-04-16T12:47:27;19.10;88.60
44271;DHT22;29963;44.594;11.368;2023-04-16T12:49:52;19.10;89.00
44271;DHT22;29963;44.594;11.368;2023-04-16T12:52:18;19.10;88.20
44271;DHT22;29963;44.594;11.368;2023-04-16T12:54:43;19.10;88.30
44271;DHT22;29963;44.594;11.368;2023-04-16T12:57:09;19.20;87.80
44271;DHT22;29963;44.594;11.368;2023-04-16T12:59:36;19.30;88.10
44271;DHT22;29963;44.594;11.368;2023-04-16T13:02:01;19.30;87.70
44271;DHT22;29963;44.594;11.368;2023-04-16T13:04:27;19.30;87.50
44271;DHT22;29963;44.594;11.368;2023-04-16T13:06:52;19.20;86.50
44271;DHT22;29963;44.594;11.368;2023-04-16T13:09:18;19.10;86.80
44271;DHT22;29963;44.594;11.368;2023-04-16T13:11:44;19.10;86.80
44271;DHT22;29963;44.594;11.368;2023-04-16T13:14:10;19.20;85.70
44271;DHT22;29963;44.594;11.368;2023-04-16T13:16:35;19.30;82.80
44271;DHT22;29963;44.594;11.368;2023-04-16T13:19:03;19.40;83.40
44271;DHT22;29963;44.594;11.368;2023-04-16T13:21:29;19.40;82.50
44271;DHT22;29963;44.594;11.368;2023-04-16T13:23:54;19.50;83.00
44271;DHT22;29963;44.594;11.368;2023-04-16T13:26:20;19.50;83.50
44271;DHT22;29963;44.594;11.368;2023-04-16T13:28:46;19.60;82.30
44271;DHT22;29963;44.594;11.368;2023-04-16T13:31:12;19.60;81.90
44271;DHT22;29963;44.594;11.368;2023-04-16T13:33:38;19.60;82.80
44271;DHT22;29963;44.594;11.368;2023-04-16T13:36:04;19.70;82.90
44271;DHT22;29963;44.594;11.368;2023-04-16T13:38:30;19.80;82.20
44271;DHT22;29963;44.594;11.368;2023-04-16T13:40:56;19.90;81.50
44271;DHT22;29963;44.594;11.368;2023-04-16T13:43:21;20.00;80.50
44271;DHT22;29963;44.594;11.368;2023-04-16T13:45:47;20.10;80.10
44271;DHT22;29963;44.594;11.368;2023-04-16T13:48:12;20.20;79.00
44271;DHT22;29963;44.594;11.368;2023-04-16T13:50:38;20.30;77.50
44271;DHT22;29963;44.594;11.368;2023-04-16T13:53:04;20.30;76.90
44271;DHT22;29963;44.594;11.368;2023-04-16T13:55:30;20.30;75.70
44271;DHT22;29963;44.594;11.368;2023-04-16T13:57:56;20.40;77.30
44271;DHT22;29963;44.594;11.368;2023-04-16T14:00:22;20.50;77.80
44271;DHT22;29963;44.594;11.368;2023-04-16T14:02:49;20.60;76.10
44271;DHT22;29963;44.594;11.368;2023-04-16T14:05:14;20.70;76.90
44271;DHT22;29963;44.594;11.368;2023-04-16T14:07:40;20.90;75.90
44271;DHT22;29963;44.594;11.368;2023-04-16T14:10:06;20.90;75.10
44271;DHT22;29963;44.594;11.368;2023-04-16T14:12:32;21.00;73.20
44271;DHT22;29963;44.594;11.368;2023-04-16T14:14:58;21.00;74.10
44271;DHT22;29963;44.594;11.368;2023-04-16T14:17:24;21.10;74.00
44271;DHT22;29963;44.594;11.368;2023-04-16T14:19:49;21.20;72.80
44271;DHT22;29963;44.594;11.368;2023-04-16T14:22:15;21.40;73.90
44271;DHT22;29963;44.594;11.368;2023-04-16T14:24:42;21.50;72.90
44271;DHT22;29963;44.594;11.368;2023-04-16T14:27:08;21.60;73.00
44271;DHT22;29963;44.594;11.368;2023-04-16T14:29:34;21.70;72.40
44271;DHT22;29963;44.594;11.368;2023-04-16T14:32:00;21.80;71.00
44271;DHT22;29963;44.594;11.368;2023-04-16T14:34:26;21.80;69.80
44271;DHT22;29963;44.594;11.368;2023-04-16T14:36:52;22.10;69.30
44271;DHT22;29963;44.594;11.368;2023-04-16T14:39:17;22.30;69.60
44271;DHT22;29963;44.594;11.368;2023-04-16T14:41:43;22.50;67.00
44271;DHT22;29963;44.594;11.368;2023-04-16T14:44:08;22.60;67.50
44271;DHT22;29963;44.594;11.368;2023-04-16T14:46:34;22.80;66.50
44271;DHT22;29963;44.594;11.368;2023-04-16T14:49:00;23.00;65.50
44271;DHT22;29963;44.594;11.368;2023-04-16T14:51:26;23.10;65.50
44271;DHT22;29963;44.594;11.368;2023-04-16T14:53:52;23.30;65.10
44271;DHT22;29963;44.594;11.368;2023-04-16T14:56:17;23.60;63.40
44271;DHT22;29963;44.594;11.368;2023-04-16T14:58:43;23.80;63.90
44271;DHT22;29963;44.594;11.368;2023-04-16T15:01:08;24.10;63.70
44271;DHT22;29963;44.594;11.368;2023-04-16T15:03:34;24.50;62.80
44271;DHT22;29963;44.594;11.368;2023-04-16T15:06:00;24.90;61.50
44271;DHT22;29963;44.594;11.368;2023-04-16T15:08:26;25.50;61.30
44271;DHT22;29963;44.594;11.368;2023-04-16T15:10:51;26.40;59.10
44271;DHT22;29963;44.594;11.368;2023-04-16T15:13:17;26.90;58.40
44271;DHT22;29963;44.594;11.368;2023-04-16T15:15:43;27.70;57.40
44271;DHT22;29963;44.594;11.368;2023-04-16T15:18:09;28.40;56.20
44271;DHT22;29963;44.594;11.368;2023-04-16T15:20:35;28.90;54.40
44271;DHT22;29963;44.594;11.368;2023-04-16T15:23:01;28.90;53.50
44271;DHT22;29963;44.594;11.368;2023-04-16T15:25:26;29.30;52.60
44271;DHT22;29963;44.594;11.368;2023-04-16T15:27:52;29.70;51.10
44271;DHT22;29963;44.594;11.368;2023-04-16T15:30:18;30.10;49.60